Kars Airport
LTCF : now visible

Airfield :











YOU CAN JOIN US ON...

 
LOGIN :

Register | Disclaimer

   EN    FR    IT 

 









Legend :    VFR   Marginal VFR   IFR   Intensive IFR   Very Intensive IFR
Visi :
Ceiling :
>= 8 km
>= 3000ft
5 to 8 km
1000 to 3000 ft
1500m to 5 km
500 to 1000 ft
800 to 1500m
200 to 500 ft
< 800m
< 200 ft
Symbols :   Thunderstorms  Fog  Heavy snow  Heavy precipitations  Wind > 20 kt






- Airport Elevation : 5889 ft
- IATA code : KSY


LTCF - Kars

CURRENT METAR :
  • 210615Z 29003KT 250V330 1200 R06/1400N R24/P1500N BCFG SCT035 M05/M06 Q1016 RMK RWY24 VRB02KT

EXPIRED METARs :
  • 210550Z 28003KT 0400 R06/0200N R24/0300N FZFG SCT035 M06/M07 Q1016
  • 210450Z VRB01KT 0600 R06/0300N R24/0250N FZFG SCT035 M06/M07 Q1016
  • 210350Z 16004KT 0600 R06/0400N R24/0450N FZFG VV001 M05/M06 Q1015

TAF TAF LTCF
Valid from the 21 at 06:00 until the 21 at 15:00 UTC


210440Z 2106/2115 VRB02KT 0700 FZFG FEW005 BKN025
BECMG 2106/2109 1200 BCFG BKN032
BECMG 2109/2111 7000



MET'MAP, your aeronautical weather chart ! - Copyright ORBIFLY December 2007 - Disclaimer

ORBIFLY MET'MAP TEAM :

Programming & Development : Alexandra Zaïnal
Concept & original design : Baudouin d'Aumeries
Assistance for programming : Marc-Olivier Méhu
Technical & hardware support : Manuel Goepfert

Contact : metmap@orbifly.com




SOURCES & CREDITS :

   NOAA       Earth
Advisory